Hoytville, Ohio
Current Conditions -  °F | °C
As of 7:18 AM on Thursday 29 Jan 2015 (Local Time) from KFDY Reporting Station
Overcast Overcast  
Wind Chill: -5°   Ceiling: 8500
Heat Index:   Visibility: 10mi
Dew Point: -4°   Wind: 17mph
Humidity: 70%   Direction: 160°SSE
Pressure: 29.81"   Gusts: NA
Location:  41.19°N, 83.78°W
Report Text: KFDY 291218Z AUTO 16015KT 10SM FEW070 OVC085 01/M04 A2981 RMK AO2 UPE00FZRAB00E12 P0000 I1000 T00061044
Loading
Personal Weather Stations






























Interactive Weather Map New forecast layout! Learn more

10-Day Weather Forecast

Advertisements
Track Severe Weather on mobile